createdAt,value
2023-01-29T00:28:19.019Z,15.97
2023-01-29T00:33:21.464Z,13.80
2023-01-29T00:38:24.952Z,16.13
2023-01-29T00:43:45.741Z,12.77
2023-01-29T00:48:48.159Z,14.33
2023-01-29T01:09:45.521Z,14.80
2023-01-29T01:14:48.773Z,14.50
2023-01-29T01:19:51.110Z,11.90
2023-01-29T01:24:53.529Z,12.67
2023-01-29T01:29:55.871Z,12.60
2023-01-29T01:34:58.106Z,13.60
2023-01-29T01:40:00.496Z,12.80
2023-01-29T01:45:10.362Z,12.60
2023-01-29T01:50:37.799Z,13.50
2023-01-29T01:55:53.025Z,14.17
2023-01-29T02:00:56.165Z,11.97
2023-01-29T02:06:19.243Z,12.40
2023-01-29T02:11:21.972Z,13.23
2023-01-29T02:16:24.394Z,12.10
2023-01-29T02:21:45.109Z,13.43
2023-01-29T02:27:33.573Z,16.37
2023-01-29T02:40:36.520Z,13.80
2023-01-29T02:45:51.081Z,14.93
2023-01-29T02:51:05.673Z,14.13
2023-01-29T02:56:22.006Z,14.30
2023-01-29T03:01:33.269Z,15.47
2023-01-29T03:06:48.175Z,14.50
2023-01-29T03:11:58.906Z,14.63
2023-01-29T03:17:03.630Z,13.63
2023-01-29T03:22:08.709Z,14.87
2023-01-29T03:27:33.377Z,14.07
2023-01-29T03:32:38.672Z,13.83
2023-01-29T03:37:47.792Z,15.13
2023-01-29T03:43:19.613Z,13.80
2023-01-29T03:49:18.975Z,13.70
2023-01-29T03:55:01.023Z,15.10
2023-01-29T04:00:22.986Z,15.07
2023-01-29T04:06:05.721Z,14.93
2023-01-29T04:11:16.177Z,17.03
2023-01-29T04:16:24.806Z,14.37
2023-01-29T04:22:32.028Z,14.93
2023-01-29T04:28:01.960Z,16.40
2023-01-29T04:33:42.002Z,15.43
2023-01-29T04:39:24.877Z,12.10
2023-01-29T04:44:38.822Z,14.37
2023-01-29T04:50:01.045Z,14.40
2023-01-29T04:55:32.138Z,12.70
2023-01-29T05:00:44.220Z,15.70
2023-01-29T05:05:49.451Z,14.40
2023-01-29T05:10:56.273Z,13.40
2023-01-29T05:16:07.991Z,12.97
2023-01-29T05:21:11.050Z,16.20
2023-01-29T05:26:31.931Z,18.07
2023-01-29T05:31:34.261Z,16.10
2023-01-29T05:36:36.511Z,18.93
2023-01-29T05:41:38.875Z,20.00
2023-01-29T05:46:41.237Z,25.33
2023-01-29T05:51:43.701Z,42.47
2023-01-29T05:56:46.014Z,33.80
2023-01-29T06:01:48.258Z,20.60
2023-01-29T06:06:50.484Z,18.93
2023-01-29T06:11:52.601Z,19.03
2023-01-29T06:16:54.854Z,21.57
2023-01-29T06:21:57.165Z,18.27
2023-01-29T06:26:59.523Z,19.77
2023-01-29T06:32:01.777Z,16.10
2023-01-29T06:37:04.286Z,15.60
2023-01-29T06:42:06.588Z,18.30
2023-01-29T06:47:08.898Z,17.93
2023-01-29T06:52:11.178Z,20.17
2023-01-29T06:57:13.506Z,23.17
2023-01-29T07:02:15.832Z,21.20
2023-01-29T07:07:18.486Z,21.47
2023-01-29T07:12:20.761Z,18.17
2023-01-29T07:17:23.065Z,20.87
2023-01-29T07:22:25.220Z,16.93
2023-01-29T07:27:28.296Z,17.57
2023-01-29T07:32:30.404Z,20.47
2023-01-29T07:37:32.717Z,18.60
2023-01-29T07:42:35.564Z,19.80
2023-01-29T07:47:37.942Z,20.70
2023-01-29T07:52:40.282Z,18.43
2023-01-29T07:57:42.593Z,21.43
2023-01-29T08:02:44.882Z,16.80
2023-01-29T08:08:05.332Z,14.47
2023-01-29T08:13:09.788Z,15.77
2023-01-29T08:18:13.051Z,16.33
2023-01-29T08:23:16.876Z,19.83
2023-01-29T08:28:19.274Z,19.70
2023-01-29T08:33:29.732Z,18.30
2023-01-29T08:38:36.917Z,22.90
2023-01-29T08:43:39.845Z,18.93
2023-01-29T08:48:42.212Z,17.40
2023-01-29T08:53:44.566Z,16.87
2023-01-29T08:58:46.874Z,20.23
2023-01-29T09:03:50.350Z,16.23
2023-01-29T09:08:52.966Z,14.67
2023-01-29T09:13:55.196Z,16.47
2023-01-29T09:18:57.444Z,17.33
2023-01-29T09:23:59.762Z,17.23
2023-01-29T09:29:02.079Z,17.60
2023-01-29T09:34:04.377Z,16.77
2023-01-29T09:39:07.036Z,14.53
2023-01-29T09:44:24.615Z,19.30
2023-01-29T09:49:36.013Z,15.50
2023-01-29T09:54:58.073Z,16.10
2023-01-29T10:00:00.542Z,15.87
2023-01-29T10:05:29.799Z,17.50
2023-01-29T10:10:47.667Z,17.63
2023-01-29T10:16:18.794Z,16.90
2023-01-29T10:21:46.554Z,19.17
2023-01-29T10:26:50.602Z,15.77
2023-01-29T10:32:05.204Z,15.80
2023-01-29T10:37:24.227Z,15.30
2023-01-29T10:42:43.031Z,17.53
2023-01-29T10:48:44.916Z,18.00
2023-01-29T10:54:14.998Z,15.87
2023-01-29T10:59:48.030Z,15.77
2023-01-29T11:04:50.321Z,11.87
2023-01-29T11:10:10.742Z,11.57
2023-01-29T11:15:26.901Z,8.13
2023-01-29T11:20:31.623Z,12.50
2023-01-29T11:25:33.796Z,11.90
2023-01-29T11:30:41.367Z,9.80
2023-01-29T11:35:43.794Z,8.10
2023-01-29T11:40:46.365Z,8.73
2023-01-29T11:45:59.901Z,6.43
2023-01-29T11:51:04.306Z,8.83
2023-01-29T11:56:20.850Z,9.93
2023-01-29T12:01:35.011Z,7.90
2023-01-29T12:06:43.022Z,7.93
2023-01-29T12:11:45.419Z,9.03
2023-01-29T12:17:00.891Z,9.60
2023-01-29T12:22:46.750Z,8.43
2023-01-29T12:27:59.913Z,7.77
2023-01-29T12:33:24.177Z,7.60
2023-01-29T12:38:26.738Z,5.60
2023-01-29T12:43:46.848Z,7.13
2023-01-29T12:48:51.262Z,7.20
2023-01-29T12:54:13.192Z,7.03
2023-01-29T12:59:30.525Z,7.63
2023-01-29T13:04:58.167Z,9.33
2023-01-29T13:10:12.383Z,8.57
2023-01-29T13:15:26.565Z,9.73
2023-01-29T13:20:35.425Z,8.70
2023-01-29T13:25:38.575Z,7.90
2023-01-29T13:30:40.961Z,7.40
2023-01-29T13:35:46.767Z,8.00
2023-01-29T13:40:50.939Z,9.53
2023-01-29T13:45:54.790Z,10.30
2023-01-29T13:51:02.309Z,8.23
2023-01-29T13:56:33.884Z,9.27
2023-01-29T14:01:48.229Z,8.97
2023-01-29T14:07:06.451Z,10.27
2023-01-29T14:12:41.005Z,9.67
2023-01-29T14:18:09.032Z,7.60
2023-01-29T14:23:28.749Z,8.60
2023-01-29T14:28:34.643Z,8.50
2023-01-29T14:33:41.868Z,10.27
2023-01-29T14:38:52.591Z,8.30
2023-01-29T14:44:45.942Z,8.60
2023-01-29T14:49:59.237Z,8.80
2023-01-29T14:55:25.178Z,8.47
2023-01-29T15:00:32.003Z,8.50
2023-01-29T15:05:38.090Z,10.10
2023-01-29T15:11:13.359Z,7.80
2023-01-29T15:16:42.675Z,10.63
2023-01-29T15:22:13.168Z,8.47
2023-01-29T15:27:20.804Z,9.60
2023-01-29T15:32:36.560Z,10.63
2023-01-29T15:37:40.656Z,10.33
2023-01-29T15:42:48.560Z,9.70
2023-01-29T15:47:52.132Z,11.50
2023-01-29T15:53:03.847Z,11.90
2023-01-29T15:58:11.680Z,10.17
2023-01-29T16:03:16.156Z,9.03
2023-01-29T16:08:20.431Z,8.03
2023-01-29T16:13:29.566Z,9.23
2023-01-29T16:18:47.735Z,9.77
2023-01-29T16:24:10.214Z,10.40
2023-01-29T16:29:25.168Z,9.07
2023-01-29T16:34:36.603Z,10.67
2023-01-29T16:39:48.009Z,11.20
2023-01-29T16:44:56.174Z,10.80
2023-01-29T16:50:02.385Z,16.60
2023-01-29T16:55:18.730Z,15.03
2023-01-29T17:00:29.842Z,13.17
2023-01-29T17:05:37.161Z,14.70
2023-01-29T17:10:39.365Z,17.57
2023-01-29T17:15:47.401Z,17.50
2023-01-29T17:20:50.946Z,19.33
2023-01-29T17:25:53.349Z,16.00
2023-01-29T17:31:05.838Z,16.17
2023-01-29T17:36:13.676Z,14.50
2023-01-29T17:41:26.241Z,14.67
2023-01-29T17:46:28.454Z,14.13
2023-01-29T17:51:30.992Z,16.13
2023-01-29T17:56:33.155Z,13.60
2023-01-29T18:01:35.304Z,15.03
2023-01-29T18:06:38.571Z,13.40
2023-01-29T18:11:41.536Z,18.43
2023-01-29T18:16:44.950Z,15.60
2023-01-29T18:21:48.554Z,16.17
2023-01-29T18:26:51.275Z,14.93
2023-01-29T18:31:53.525Z,18.27
2023-01-29T18:36:55.817Z,20.63
2023-01-29T18:41:58.097Z,18.47
2023-01-29T18:47:00.215Z,23.63
2023-01-29T18:52:02.337Z,22.90
2023-01-29T18:57:13.843Z,22.70
2023-01-29T19:02:27.277Z,16.20
2023-01-29T19:07:29.602Z,20.37
2023-01-29T19:12:31.763Z,21.90
2023-01-29T19:17:34.179Z,22.73
2023-01-29T19:22:36.410Z,27.00
2023-01-29T19:27:38.787Z,21.07
2023-01-29T19:32:41.454Z,25.63
2023-01-29T19:37:43.754Z,16.40
2023-01-29T19:42:47.916Z,22.83
2023-01-29T19:47:50.535Z,21.07
2023-01-29T19:52:53.459Z,20.37
2023-01-29T19:57:58.556Z,16.30
2023-01-29T20:03:01.297Z,18.03
2023-01-29T20:08:03.488Z,14.37
2023-01-29T20:13:06.023Z,16.30
2023-01-29T20:18:11.813Z,13.20
2023-01-29T20:23:28.012Z,17.30
2023-01-29T20:28:38.122Z,14.30
2023-01-29T20:33:40.656Z,16.33
2023-01-29T20:38:42.883Z,14.80
2023-01-29T20:43:47.177Z,14.77
2023-01-29T20:48:53.135Z,17.03
2023-01-29T20:53:55.615Z,14.47
2023-01-29T20:58:58.146Z,14.13
2023-01-29T21:04:00.258Z,15.10
2023-01-29T21:09:02.429Z,14.40
2023-01-29T21:14:04.950Z,13.40
2023-01-29T21:19:07.359Z,13.43
2023-01-29T21:24:11.424Z,13.63
2023-01-29T21:29:14.959Z,15.80
2023-01-29T21:34:17.087Z,12.43
2023-01-29T21:39:21.049Z,13.63
2023-01-29T21:44:23.179Z,15.07
2023-01-29T21:49:25.523Z,15.20
2023-01-29T21:54:30.998Z,18.57
2023-01-29T21:59:33.304Z,14.70
2023-01-29T22:04:35.405Z,14.27
2023-01-29T22:09:38.333Z,14.50
2023-01-29T22:14:42.043Z,13.70
2023-01-29T22:19:44.273Z,16.00
2023-01-29T22:24:46.763Z,12.90
2023-01-29T22:29:48.869Z,14.50
2023-01-29T22:34:51.247Z,15.20
2023-01-29T22:39:53.377Z,16.73
2023-01-29T22:44:55.603Z,10.70
2023-01-29T22:49:57.702Z,15.87
2023-01-29T22:54:59.858Z,15.30
2023-01-29T23:00:04.995Z,17.97
2023-01-29T23:05:08.062Z,14.80
2023-01-29T23:10:17.592Z,13.10
2023-01-29T23:15:19.936Z,12.17
2023-01-29T23:20:22.208Z,13.63
2023-01-29T23:25:47.386Z,13.00
2023-01-29T23:30:52.172Z,13.50
2023-01-29T23:35:54.613Z,12.23
2023-01-29T23:40:58.141Z,17.77
2023-01-29T23:46:00.833Z,13.70
2023-01-29T23:51:03.123Z,11.23
2023-01-29T23:56:06.552Z,12.57
